Archival Weather

Joint Base Andrews

Camp Springs, Maryland (KADW)

Report from: Tuesday, February 27, 2024 6:40 PM EST
Current time: Wednesday, May 29, 2024 7:27 PM EDT

Current weather – Weather history – Daily summaries
Weather forecast

Temperature15.0°C (59.0°F)
Dew point11.0°C (51.8°F)
Winds 13 kts (6.7 m/s, 15 mph) South (180°)
Visibility10 mi. (16.1 km)
Clouds Ceiling: Overcast 1,900 ft. (579 m)
Altimeter29.82 in.Hg (1010 mB)
Relative humidity77 %
Density altitude278 ft. (85 m)
Sea-level pressure101.1 kPa (1011 mB, 29.84 in.Hg)
Remarks Fully automated report
System requires maintenance
Special weather observation
Automated weather observing station with precipitation discriminator
Ceiling
Flight conditions Marginal Visual Meteorological Conditions
Raw dataSPXX60 KWBC 272348 SPECI KADW 272340Z AUTO 18013KT 10SM OVC019 15/11 A2982 RMK AO2 CIG 018 RWY19L SLP105 $
An error has occurred. This application may no longer respond until reloaded. Reload 🗙